sensor_id;sensor_type;location;lat;lon;timestamp;pressure;altitude;pressure_sealevel;temperature;humidity
61384;BME280;63511;49.346;8.798;2023-03-04T00:00:49;100900.63;;;1.84;71.72
61384;BME280;63511;49.346;8.798;2023-03-04T00:03:16;100899.63;;;1.98;70.02
61384;BME280;63511;49.346;8.798;2023-03-04T00:05:42;100907.44;;;2.01;70.71
61384;BME280;63511;49.346;8.798;2023-03-04T00:08:09;100907.47;;;1.94;70.92
61384;BME280;63511;49.346;8.798;2023-03-04T00:10:37;100908.66;;;2.04;70.01
61384;BME280;63511;49.346;8.798;2023-03-04T00:13:03;100902.78;;;2.04;71.19
61384;BME280;63511;49.346;8.798;2023-03-04T00:15:30;100903.22;;;1.93;71.10
61384;BME280;63511;49.346;8.798;2023-03-04T00:17:56;100905.41;;;1.83;71.28
61384;BME280;63511;49.346;8.798;2023-03-04T00:20:23;100903.63;;;1.82;70.63
61384;BME280;63511;49.346;8.798;2023-03-04T00:22:49;100905.00;;;1.94;70.55
61384;BME280;63511;49.346;8.798;2023-03-04T00:25:16;100901.81;;;1.88;70.77
61384;BME280;63511;49.346;8.798;2023-03-04T00:27:44;100897.88;;;1.97;70.57
61384;BME280;63511;49.346;8.798;2023-03-04T00:30:11;100902.63;;;1.73;71.00
61384;BME280;63511;49.346;8.798;2023-03-04T00:32:38;100906.19;;;1.45;72.53
61384;BME280;63511;49.346;8.798;2023-03-04T00:35:05;100908.56;;;1.29;72.84
61384;BME280;63511;49.346;8.798;2023-03-04T00:37:32;100911.00;;;1.73;70.72
61384;BME280;63511;49.346;8.798;2023-03-04T00:39:58;100908.28;;;1.79;70.14
61384;BME280;63511;49.346;8.798;2023-03-04T00:42:25;100916.44;;;1.85;70.54
61384;BME280;63511;49.346;8.798;2023-03-04T00:44:53;100913.00;;;1.61;71.47
61384;BME280;63511;49.346;8.798;2023-03-04T00:47:19;100916.06;;;1.89;70.93
61384;BME280;63511;49.346;8.798;2023-03-04T00:49:46;100919.69;;;1.77;70.61
61384;BME280;63511;49.346;8.798;2023-03-04T00:52:12;100915.09;;;1.73;70.99
61384;BME280;63511;49.346;8.798;2023-03-04T00:54:39;100917.94;;;1.76;70.91
61384;BME280;63511;49.346;8.798;2023-03-04T00:57:05;100921.88;;;1.66;70.56
61384;BME280;63511;49.346;8.798;2023-03-04T00:59:32;100919.34;;;1.74;70.11
61384;BME280;63511;49.346;8.798;2023-03-04T01:02:00;100911.19;;;1.67;70.88
61384;BME280;63511;49.346;8.798;2023-03-04T01:04:26;100919.34;;;1.74;70.54
61384;BME280;63511;49.346;8.798;2023-03-04T01:06:53;100921.38;;;1.18;73.11
61384;BME280;63511;49.346;8.798;2023-03-04T01:09:19;100920.81;;;1.35;71.90
61384;BME280;63511;49.346;8.798;2023-03-04T01:11:46;100911.09;;;1.59;71.25
61384;BME280;63511;49.346;8.798;2023-03-04T01:14:12;100912.69;;;1.58;70.31
61384;BME280;63511;49.346;8.798;2023-03-04T01:16:39;100924.44;;;1.01;72.65
61384;BME280;63511;49.346;8.798;2023-03-04T01:19:07;100926.00;;;1.15;71.91
61384;BME280;63511;49.346;8.798;2023-03-04T01:21:33;100920.75;;;1.42;70.16
61384;BME280;63511;49.346;8.798;2023-03-04T01:24:00;100910.66;;;1.33;70.55
61384;BME280;63511;49.346;8.798;2023-03-04T01:26:26;100916.41;;;1.18;71.43
61384;BME280;63511;49.346;8.798;2023-03-04T01:28:53;100906.38;;;1.39;70.48
61384;BME280;63511;49.346;8.798;2023-03-04T01:31:19;100911.69;;;1.42;70.66
61384;BME280;63511;49.346;8.798;2023-03-04T01:33:46;100906.72;;;1.42;70.87
61384;BME280;63511;49.346;8.798;2023-03-04T01:36:13;100903.47;;;1.50;70.17
61384;BME280;63511;49.346;8.798;2023-03-04T01:38:40;100905.66;;;1.40;70.71
61384;BME280;63511;49.346;8.798;2023-03-04T01:41:07;100901.03;;;1.43;70.22
61384;BME280;63511;49.346;8.798;2023-03-04T01:43:35;100902.19;;;1.24;70.96
61384;BME280;63511;49.346;8.798;2023-03-04T01:46:02;100895.94;;;0.76;72.73
61384;BME280;63511;49.346;8.798;2023-03-04T01:48:31;100903.53;;;0.85;72.42
61384;BME280;63511;49.346;8.798;2023-03-04T01:51:00;100904.91;;;1.04;71.40
61384;BME280;63511;49.346;8.798;2023-03-04T01:53:30;100901.50;;;1.11;70.92
61384;BME280;63511;49.346;8.798;2023-03-04T01:56:00;100895.25;;;1.21;70.76
61384;BME280;63511;49.346;8.798;2023-03-04T01:58:31;100886.97;;;1.00;71.07
61384;BME280;63511;49.346;8.798;2023-03-04T02:00:57;100890.22;;;0.92;71.93
61384;BME280;63511;49.346;8.798;2023-03-04T02:03:24;100898.03;;;0.80;72.53
61384;BME280;63511;49.346;8.798;2023-03-04T02:05:51;100884.72;;;0.73;71.93
61384;BME280;63511;49.346;8.798;2023-03-04T02:08:20;100886.69;;;0.75;72.02
61384;BME280;63511;49.346;8.798;2023-03-04T02:10:49;100880.59;;;0.95;71.92
61384;BME280;63511;49.346;8.798;2023-03-04T02:13:16;100876.75;;;0.68;72.66
61384;BME280;63511;49.346;8.798;2023-03-04T02:15:44;100883.25;;;0.96;71.08
61384;BME280;63511;49.346;8.798;2023-03-04T02:18:14;100887.41;;;0.74;72.07
61384;BME280;63511;49.346;8.798;2023-03-04T02:20:42;100881.09;;;0.41;72.82
61384;BME280;63511;49.346;8.798;2023-03-04T02:23:16;100880.34;;;0.49;72.98
61384;BME280;63511;49.346;8.798;2023-03-04T02:25:49;100875.66;;;0.88;70.93
61384;BME280;63511;49.346;8.798;2023-03-04T02:28:19;100878.94;;;0.51;71.97
61384;BME280;63511;49.346;8.798;2023-03-04T02:30:46;100881.38;;;0.72;70.70
61384;BME280;63511;49.346;8.798;2023-03-04T02:33:15;100879.59;;;0.71;71.64
61384;BME280;63511;49.346;8.798;2023-03-04T02:35:42;100883.13;;;0.88;71.56
61384;BME280;63511;49.346;8.798;2023-03-04T02:38:09;100888.22;;;1.03;70.93
61384;BME280;63511;49.346;8.798;2023-03-04T02:40:38;100876.50;;;1.02;71.06
61384;BME280;63511;49.346;8.798;2023-03-04T02:43:05;100882.38;;;0.96;70.72
61384;BME280;63511;49.346;8.798;2023-03-04T02:45:41;100881.41;;;0.51;72.14
61384;BME280;63511;49.346;8.798;2023-03-04T02:48:09;100878.56;;;0.48;71.78
61384;BME280;63511;49.346;8.798;2023-03-04T02:50:39;100882.47;;;0.60;70.98
61384;BME280;63511;49.346;8.798;2023-03-04T02:53:06;100886.06;;;0.41;71.77
61384;BME280;63511;49.346;8.798;2023-03-04T02:55:33;100880.34;;;0.56;70.89
61384;BME280;63511;49.346;8.798;2023-03-04T02:58:00;100879.31;;;0.19;71.60
61384;BME280;63511;49.346;8.798;2023-03-04T03:00:27;100872.56;;;0.46;71.90
61384;BME280;63511;49.346;8.798;2023-03-04T03:02:55;100875.56;;;0.43;70.85
61384;BME280;63511;49.346;8.798;2023-03-04T03:05:23;100870.69;;;0.80;70.66
61384;BME280;63511;49.346;8.798;2023-03-04T03:07:50;100870.06;;;0.46;71.67
61384;BME280;63511;49.346;8.798;2023-03-04T03:10:17;100874.88;;;0.02;73.33
61384;BME280;63511;49.346;8.798;2023-03-04T03:12:44;100879.13;;;0.17;72.94
61384;BME280;63511;49.346;8.798;2023-03-04T03:15:11;100870.63;;;0.29;71.28
61384;BME280;63511;49.346;8.798;2023-03-04T03:17:37;100875.19;;;0.55;69.99
61384;BME280;63511;49.346;8.798;2023-03-04T03:20:07;100874.84;;;0.37;71.83
61384;BME280;63511;49.346;8.798;2023-03-04T03:22:33;100871.31;;;0.21;73.04
61384;BME280;63511;49.346;8.798;2023-03-04T03:25:00;100874.34;;;0.19;72.72
61384;BME280;63511;49.346;8.798;2023-03-04T03:27:26;100875.59;;;0.15;71.94
61384;BME280;63511;49.346;8.798;2023-03-04T03:29:53;100871.69;;;0.24;71.90
61384;BME280;63511;49.346;8.798;2023-03-04T03:32:19;100865.63;;;0.36;71.25
61384;BME280;63511;49.346;8.798;2023-03-04T03:34:46;100869.53;;;0.49;70.85
61384;BME280;63511;49.346;8.798;2023-03-04T03:37:14;100872.53;;;0.53;70.85
61384;BME280;63511;49.346;8.798;2023-03-04T03:39:40;100873.44;;;0.39;71.40
61384;BME280;63511;49.346;8.798;2023-03-04T03:42:07;100879.66;;;0.08;72.21
61384;BME280;63511;49.346;8.798;2023-03-04T03:44:33;100876.78;;;-0.10;73.10
61384;BME280;63511;49.346;8.798;2023-03-04T03:47:00;100877.16;;;0.08;72.41
61384;BME280;63511;49.346;8.798;2023-03-04T03:49:26;100882.47;;;0.11;71.74
61384;BME280;63511;49.346;8.798;2023-03-04T03:51:56;100883.03;;;0.15;71.01
61384;BME280;63511;49.346;8.798;2023-03-04T03:54:24;100888.16;;;-0.12;73.43
61384;BME280;63511;49.346;8.798;2023-03-04T03:56:50;100888.31;;;-0.17;71.76
61384;BME280;63511;49.346;8.798;2023-03-04T03:59:17;100886.22;;;0.21;71.66
61384;BME280;63511;49.346;8.798;2023-03-04T04:01:43;100889.03;;;-0.04;70.10
61384;BME280;63511;49.346;8.798;2023-03-04T04:04:10;100895.25;;;0.28;71.54
61384;BME280;63511;49.346;8.798;2023-03-04T04:06:36;100901.81;;;0.13;71.33
61384;BME280;63511;49.346;8.798;2023-03-04T04:09:03;100899.34;;;0.13;70.34
61384;BME280;63511;49.346;8.798;2023-03-04T04:11:31;100901.13;;;0.35;71.65
61384;BME280;63511;49.346;8.798;2023-03-04T04:13:57;100899.50;;;-0.07;73.34
61384;BME280;63511;49.346;8.798;2023-03-04T04:16:24;100897.59;;;0.05;73.35
61384;BME280;63511;49.346;8.798;2023-03-04T04:18:50;100901.44;;;-0.04;74.80
61384;BME280;63511;49.346;8.798;2023-03-04T04:21:17;100907.66;;;0.07;74.17
61384;BME280;63511;49.346;8.798;2023-03-04T04:23:43;100897.41;;;0.25;73.11
61384;BME280;63511;49.346;8.798;2023-03-04T04:26:10;100892.25;;;0.16;75.14
61384;BME280;63511;49.346;8.798;2023-03-04T04:28:38;100888.69;;;0.57;72.81
61384;BME280;63511;49.346;8.798;2023-03-04T04:31:06;100893.44;;;0.62;72.03
61384;BME280;63511;49.346;8.798;2023-03-04T04:33:33;100892.88;;;0.79;71.43
61384;BME280;63511;49.346;8.798;2023-03-04T04:35:59;100887.97;;;0.43;72.85
61384;BME280;63511;49.346;8.798;2023-03-04T04:38:27;100881.66;;;0.97;70.95
61384;BME280;63511;49.346;8.798;2023-03-04T04:40:55;100885.13;;;1.20;70.50
61384;BME280;63511;49.346;8.798;2023-03-04T04:43:22;100884.81;;;1.10;71.00
61384;BME280;63511;49.346;8.798;2023-03-04T04:45:50;100892.63;;;1.06;71.37
61384;BME280;63511;49.346;8.798;2023-03-04T04:48:16;100896.53;;;1.11;71.39
61384;BME280;63511;49.346;8.798;2023-03-04T04:50:43;100896.34;;;1.09;71.77
61384;BME280;63511;49.346;8.798;2023-03-04T04:53:10;100901.94;;;0.78;73.44
61384;BME280;63511;49.346;8.798;2023-03-04T04:55:37;100896.78;;;0.84;74.06
61384;BME280;63511;49.346;8.798;2023-03-04T04:58:04;100906.66;;;1.05;73.01
61384;BME280;63511;49.346;8.798;2023-03-04T05:00:31;100887.78;;;1.28;71.70
61384;BME280;63511;49.346;8.798;2023-03-04T05:02:59;100895.50;;;1.46;71.46
61384;BME280;63511;49.346;8.798;2023-03-04T05:05:25;100899.78;;;1.03;73.16
61384;BME280;63511;49.346;8.798;2023-03-04T05:07:52;100893.50;;;1.50;72.22
61384;BME280;63511;49.346;8.798;2023-03-04T05:10:18;100903.69;;;1.75;70.74
61384;BME280;63511;49.346;8.798;2023-03-04T05:12:45;100897.94;;;1.60;71.14
61384;BME280;63511;49.346;8.798;2023-03-04T05:15:11;100899.78;;;1.03;73.53
61384;BME280;63511;49.346;8.798;2023-03-04T05:17:38;100889.47;;;1.44;72.37
61384;BME280;63511;49.346;8.798;2023-03-04T05:20:07;100891.75;;;1.49;71.92
61384;BME280;63511;49.346;8.798;2023-03-04T05:22:34;100892.94;;;1.60;71.72
61384;BME280;63511;49.346;8.798;2023-03-04T05:25:00;100895.38;;;1.37;72.88
61384;BME280;63511;49.346;8.798;2023-03-04T05:27:27;100897.09;;;1.45;72.20
61384;BME280;63511;49.346;8.798;2023-03-04T05:29:53;100893.97;;;1.69;71.91
61384;BME280;63511;49.346;8.798;2023-03-04T05:32:20;100893.94;;;1.76;71.46
61384;BME280;63511;49.346;8.798;2023-03-04T05:34:46;100888.91;;;1.46;73.47
61384;BME280;63511;49.346;8.798;2023-03-04T05:37:14;100896.16;;;1.52;72.63
61384;BME280;63511;49.346;8.798;2023-03-04T05:39:41;100893.38;;;0.98;75.46
61384;BME280;63511;49.346;8.798;2023-03-04T05:42:07;100896.84;;;1.28;74.47
61384;BME280;63511;49.346;8.798;2023-03-04T05:44:34;100899.13;;;1.63;73.55
61384;BME280;63511;49.346;8.798;2023-03-04T05:47:00;100896.31;;;1.60;72.78
61384;BME280;63511;49.346;8.798;2023-03-04T05:49:27;100898.31;;;1.12;74.86
61384;BME280;63511;49.346;8.798;2023-03-04T05:51:54;100899.66;;;1.68;73.49
61384;BME280;63511;49.346;8.798;2023-03-04T05:54:21;100894.97;;;1.48;73.97
61384;BME280;63511;49.346;8.798;2023-03-04T05:56:48;100902.78;;;1.00;75.32
61384;BME280;63511;49.346;8.798;2023-03-04T05:59:14;100890.38;;;1.44;75.12
61384;BME280;63511;49.346;8.798;2023-03-04T06:01:44;100889.84;;;1.40;74.92
61384;BME280;63511;49.346;8.798;2023-03-04T06:04:11;100892.44;;;2.08;72.21
61384;BME280;63511;49.346;8.798;2023-03-04T06:06:37;100890.84;;;2.31;70.56
61384;BME280;63511;49.346;8.798;2023-03-04T06:09:04;100895.94;;;1.94;71.52
61384;BME280;63511;49.346;8.798;2023-03-04T06:11:32;100899.56;;;1.45;74.01
61384;BME280;63511;49.346;8.798;2023-03-04T06:13:58;100898.00;;;2.05;72.26
61384;BME280;63511;49.346;8.798;2023-03-04T06:16:25;100903.63;;;1.82;72.80
61384;BME280;63511;49.346;8.798;2023-03-04T06:18:51;100904.31;;;2.18;71.60
61384;BME280;63511;49.346;8.798;2023-03-04T06:21:18;100911.75;;;1.95;72.46
61384;BME280;63511;49.346;8.798;2023-03-04T06:23:44;100912.81;;;2.20;71.63
61384;BME280;63511;49.346;8.798;2023-03-04T06:26:11;100915.16;;;1.88;72.84
61384;BME280;63511;49.346;8.798;2023-03-04T06:28:41;100910.97;;;1.43;75.68
61384;BME280;63511;49.346;8.798;2023-03-04T06:31:07;100927.09;;;2.13;73.73
61384;BME280;63511;49.346;8.798;2023-03-04T06:33:34;100927.81;;;1.83;73.88
61384;BME280;63511;49.346;8.798;2023-03-04T06:36:00;100923.94;;;2.30;72.96
61384;BME280;63511;49.346;8.798;2023-03-04T06:38:27;100930.31;;;1.83;73.63
61384;BME280;63511;49.346;8.798;2023-03-04T06:40:54;100930.53;;;1.77;74.62
61384;BME280;63511;49.346;8.798;2023-03-04T06:43:20;100934.41;;;2.12;73.74
61384;BME280;63511;49.346;8.798;2023-03-04T06:45:49;100925.81;;;2.40;72.79
61384;BME280;63511;49.346;8.798;2023-03-04T06:48:15;100930.88;;;2.33;72.89
61384;BME280;63511;49.346;8.798;2023-03-04T06:50:42;100929.59;;;1.84;74.91
61384;BME280;63511;49.346;8.798;2023-03-04T06:53:08;100942.75;;;1.90;74.05
61384;BME280;63511;49.346;8.798;2023-03-04T06:55:35;100943.16;;;2.31;74.46
61384;BME280;63511;49.346;8.798;2023-03-04T06:58:01;100941.75;;;2.72;72.16
61384;BME280;63511;49.346;8.798;2023-03-04T07:00:28;100941.66;;;2.63;72.44
61384;BME280;63511;49.346;8.798;2023-03-04T07:02:56;100937.66;;;2.72;72.35
61384;BME280;63511;49.346;8.798;2023-03-04T07:05:23;100931.56;;;2.54;73.36
61384;BME280;63511;49.346;8.798;2023-03-04T07:07:50;100934.22;;;2.79;72.91
61384;BME280;63511;49.346;8.798;2023-03-04T07:10:17;100937.19;;;2.83;72.15
61384;BME280;63511;49.346;8.798;2023-03-04T07:12:44;100940.19;;;2.88;71.96
61384;BME280;63511;49.346;8.798;2023-03-04T07:15:10;100951.16;;;2.59;72.34
61384;BME280;63511;49.346;8.798;2023-03-04T07:17:37;100944.34;;;2.80;72.92
61384;BME280;63511;49.346;8.798;2023-03-04T07:20:05;100953.13;;;2.54;74.00
61384;BME280;63511;49.346;8.798;2023-03-04T07:22:32;100956.22;;;2.90;73.08
61384;BME280;63511;49.346;8.798;2023-03-04T07:24:58;100954.47;;;2.82;73.22
61384;BME280;63511;49.346;8.798;2023-03-04T07:27:25;100954.69;;;3.30;72.12
61384;BME280;63511;49.346;8.798;2023-03-04T07:29:51;100957.97;;;3.38;71.47
61384;BME280;63511;49.346;8.798;2023-03-04T07:32:18;100962.53;;;2.56;74.78
61384;BME280;63511;49.346;8.798;2023-03-04T07:34:44;100969.34;;;2.50;75.89
61384;BME280;63511;49.346;8.798;2023-03-04T07:37:12;100960.16;;;3.04;74.37
61384;BME280;63511;49.346;8.798;2023-03-04T07:39:39;100973.59;;;2.59;75.83
61384;BME280;63511;49.346;8.798;2023-03-04T07:42:05;100970.97;;;2.73;75.28
61384;BME280;63511;49.346;8.798;2023-03-04T07:44:32;100961.97;;;2.82;75.39
61384;BME280;63511;49.346;8.798;2023-03-04T07:46:58;100964.28;;;3.34;74.61
61384;BME280;63511;49.346;8.798;2023-03-04T07:49:25;100961.06;;;3.20;73.83
61384;BME280;63511;49.346;8.798;2023-03-04T07:51:51;100952.72;;;3.59;72.58
61384;BME280;63511;49.346;8.798;2023-03-04T07:54:19;100963.13;;;3.71;72.84
61384;BME280;63511;49.346;8.798;2023-03-04T07:56:46;100955.41;;;3.61;72.44
61384;BME280;63511;49.346;8.798;2023-03-04T07:59:12;100971.75;;;3.66;73.01
61384;BME280;63511;49.346;8.798;2023-03-04T08:01:39;100964.34;;;3.99;71.88
61384;BME280;63511;49.346;8.798;2023-03-04T08:04:06;100966.34;;;3.94;71.97
61384;BME280;63511;49.346;8.798;2023-03-04T08:06:33;100967.56;;;4.22;70.89
61384;BME280;63511;49.346;8.798;2023-03-04T08:09:01;100968.63;;;4.24;71.19
61384;BME280;63511;49.346;8.798;2023-03-04T08:11:30;100974.91;;;3.96;72.17
61384;BME280;63511;49.346;8.798;2023-03-04T08:13:56;100969.97;;;4.05;72.21
61384;BME280;63511;49.346;8.798;2023-03-04T08:16:24;100969.44;;;3.92;72.03
61384;BME280;63511;49.346;8.798;2023-03-04T08:18:53;100966.81;;;4.47;70.40
61384;BME280;63511;49.346;8.798;2023-03-04T08:21:21;100968.50;;;4.31;70.77
61384;BME280;63511;49.346;8.798;2023-03-04T08:23:48;100974.06;;;3.80;72.41
61384;BME280;63511;49.346;8.798;2023-03-04T08:26:17;100964.53;;;4.24;71.81
61384;BME280;63511;49.346;8.798;2023-03-04T08:28:46;100960.59;;;4.11;72.48
61384;BME280;63511;49.346;8.798;2023-03-04T08:31:13;100976.84;;;3.99;72.29
61384;BME280;63511;49.346;8.798;2023-03-04T08:33:40;100973.75;;;4.01;72.55
61384;BME280;63511;49.346;8.798;2023-03-04T08:36:07;100963.63;;;4.24;72.65
61384;BME280;63511;49.346;8.798;2023-03-04T08:38:34;100968.22;;;4.61;71.49
61384;BME280;63511;49.346;8.798;2023-03-04T08:41:01;100978.56;;;4.15;72.00
61384;BME280;63511;49.346;8.798;2023-03-04T08:43:28;100975.03;;;4.46;71.73
61384;BME280;63511;49.346;8.798;2023-03-04T08:45:56;100968.88;;;4.18;72.95
61384;BME280;63511;49.346;8.798;2023-03-04T08:48:23;100968.19;;;4.28;72.77
61384;BME280;63511;49.346;8.798;2023-03-04T08:50:50;100966.94;;;4.40;72.89
61384;BME280;63511;49.346;8.798;2023-03-04T08:53:18;100968.75;;;4.50;72.75
61384;BME280;63511;49.346;8.798;2023-03-04T08:55:45;100975.25;;;4.56;73.11
61384;BME280;63511;49.346;8.798;2023-03-04T08:58:12;100968.34;;;4.62;72.06
61384;BME280;63511;49.346;8.798;2023-03-04T09:00:41;100968.78;;;4.58;72.68
61384;BME280;63511;49.346;8.798;2023-03-04T09:03:10;100971.84;;;4.89;71.67
61384;BME280;63511;49.346;8.798;2023-03-04T09:05:37;100970.22;;;4.89;71.46
61384;BME280;63511;49.346;8.798;2023-03-04T09:08:04;100974.91;;;4.45;72.35
61384;BME280;63511;49.346;8.798;2023-03-04T09:10:31;100971.88;;;4.56;72.31
61384;BME280;63511;49.346;8.798;2023-03-04T09:12:58;100969.59;;;4.75;71.98
61384;BME280;63511;49.346;8.798;2023-03-04T09:15:25;100965.22;;;4.81;71.44
61384;BME280;63511;49.346;8.798;2023-03-04T09:17:51;100966.44;;;5.10;70.80
61384;BME280;63511;49.346;8.798;2023-03-04T09:20:20;100968.44;;;4.80;70.32
61384;BME280;63511;49.346;8.798;2023-03-04T09:22:47;100974.94;;;4.86;72.03
61384;BME280;63511;49.346;8.798;2023-03-04T09:25:14;100966.78;;;5.30;70.54
61384;BME280;63511;49.346;8.798;2023-03-04T09:27:41;100965.47;;;5.42;69.52
61384;BME280;63511;49.346;8.798;2023-03-04T09:30:08;100971.69;;;5.97;67.12
61384;BME280;63511;49.346;8.798;2023-03-04T09:32:36;100967.28;;;5.95;66.69
61384;BME280;63511;49.346;8.798;2023-03-04T09:35:03;100969.03;;;6.05;66.66
61384;BME280;63511;49.346;8.798;2023-03-04T09:37:31;100971.50;;;5.70;67.30
61384;BME280;63511;49.346;8.798;2023-03-04T09:39:57;100971.81;;;5.73;67.41
61384;BME280;63511;49.346;8.798;2023-03-04T09:42:31;100968.22;;;5.11;69.64
61384;BME280;63511;49.346;8.798;2023-03-04T09:44:59;100977.53;;;5.21;69.62
61384;BME280;63511;49.346;8.798;2023-03-04T09:47:27;100977.69;;;5.39;70.22
61384;BME280;63511;49.346;8.798;2023-03-04T09:49:56;100972.81;;;5.24;70.02
61384;BME280;63511;49.346;8.798;2023-03-04T09:52:36;100979.78;;;5.52;68.80
61384;BME280;63511;49.346;8.798;2023-03-04T09:55:16;100974.91;;;5.62;67.63
61384;BME280;63511;49.346;8.798;2023-03-04T09:57:48;100975.84;;;5.88;66.97
61384;BME280;63511;49.346;8.798;2023-03-04T10:00:18;100970.94;;;5.64;67.01
61384;BME280;63511;49.346;8.798;2023-03-04T10:02:58;100978.19;;;5.70;67.06
61384;BME280;63511;49.346;8.798;2023-03-04T10:05:30;100982.28;;;5.69;65.20
61384;BME280;63511;49.346;8.798;2023-03-04T10:08:04;100983.16;;;5.78;65.39
61384;BME280;63511;49.346;8.798;2023-03-04T10:10:37;100982.00;;;5.57;66.58
61384;BME280;63511;49.346;8.798;2023-03-04T10:13:13;100981.28;;;5.93;66.25
61384;BME280;63511;49.346;8.798;2023-03-04T10:15:45;100985.53;;;6.20;65.26
61384;BME280;63511;49.346;8.798;2023-03-04T10:18:13;100978.88;;;5.60;66.53
61384;BME280;63511;49.346;8.798;2023-03-04T10:20:51;100987.13;;;5.76;66.81
61384;BME280;63511;49.346;8.798;2023-03-04T10:23:22;100982.69;;;6.17;65.77
61384;BME280;63511;49.346;8.798;2023-03-04T10:25:50;100981.25;;;6.10;66.79
61384;BME280;63511;49.346;8.798;2023-03-04T10:28:20;100977.56;;;5.72;65.60
61384;BME280;63511;49.346;8.798;2023-03-04T10:30:52;100976.16;;;6.45;64.28
61384;BME280;63511;49.346;8.798;2023-03-04T10:33:25;100974.00;;;6.22;65.30
61384;BME280;63511;49.346;8.798;2023-03-04T10:35:59;100969.16;;;6.68;63.81
61384;BME280;63511;49.346;8.798;2023-03-04T10:38:30;100965.72;;;7.03;62.87
61384;BME280;63511;49.346;8.798;2023-03-04T10:40:57;100973.69;;;6.72;63.71
61384;BME280;63511;49.346;8.798;2023-03-04T10:43:24;100975.31;;;6.35;63.48
61384;BME280;63511;49.346;8.798;2023-03-04T10:45:54;100978.34;;;6.50;62.91
61384;BME280;63511;49.346;8.798;2023-03-04T10:48:23;100964.22;;;6.42;63.93
61384;BME280;63511;49.346;8.798;2023-03-04T10:50:50;100966.03;;;6.98;61.04
61384;BME280;63511;49.346;8.798;2023-03-04T10:53:24;100965.47;;;7.19;60.46
61384;BME280;63511;49.346;8.798;2023-03-04T10:55:54;100956.81;;;7.07;60.67
61384;BME280;63511;49.346;8.798;2023-03-04T10:58:21;100963.50;;;6.34;62.90
61384;BME280;63511;49.346;8.798;2023-03-04T11:00:59;100961.00;;;6.70;60.09
61384;BME280;63511;49.346;8.798;2023-03-04T11:03:29;100946.22;;;7.01;58.77
61384;BME280;63511;49.346;8.798;2023-03-04T11:06:04;100937.69;;;7.17;57.39
61384;BME280;63511;49.346;8.798;2023-03-04T11:08:31;100939.19;;;7.15;56.47
61384;BME280;63511;49.346;8.798;2023-03-04T11:10:59;100944.13;;;6.51;58.96
61384;BME280;63511;49.346;8.798;2023-03-04T11:13:26;100934.38;;;7.08;57.72
61384;BME280;63511;49.346;8.798;2023-03-04T11:15:55;100942.22;;;6.75;57.93
61384;BME280;63511;49.346;8.798;2023-03-04T11:18:25;100933.16;;;7.13;56.78
61384;BME280;63511;49.346;8.798;2023-03-04T11:20:56;100926.84;;;6.81;57.09
61384;BME280;63511;49.346;8.798;2023-03-04T11:23:31;100928.13;;;7.13;56.47
61384;BME280;63511;49.346;8.798;2023-03-04T11:26:04;100918.56;;;7.28;55.73
61384;BME280;63511;49.346;8.798;2023-03-04T11:28:39;100917.88;;;7.02;55.65
61384;BME280;63511;49.346;8.798;2023-03-04T11:31:12;100912.25;;;7.04;57.14
61384;BME280;63511;49.346;8.798;2023-03-04T11:33:43;100911.34;;;7.41;56.66
61384;BME280;63511;49.346;8.798;2023-03-04T11:36:30;100900.16;;;7.38;55.36
61384;BME280;63511;49.346;8.798;2023-03-04T11:39:00;100897.84;;;7.12;56.90
61384;BME280;63511;49.346;8.798;2023-03-04T11:41:32;100906.28;;;7.12;56.59
61384;BME280;63511;49.346;8.798;2023-03-04T11:44:00;100906.47;;;7.61;55.35
61384;BME280;63511;49.346;8.798;2023-03-04T11:46:53;100901.63;;;7.73;55.07
61384;BME280;63511;49.346;8.798;2023-03-04T11:49:54;100903.13;;;6.96;56.07
61384;BME280;63511;49.346;8.798;2023-03-04T11:52:35;100902.63;;;7.09;56.46
61384;BME280;63511;49.346;8.798;2023-03-04T11:55:14;100906.41;;;7.51;55.61
61384;BME280;63511;49.346;8.798;2023-03-04T11:57:52;100900.03;;;7.36;54.08
61384;BME280;63511;49.346;8.798;2023-03-04T12:00:29;100898.97;;;7.24;55.63
61384;BME280;63511;49.346;8.798;2023-03-04T12:03:22;100883.34;;;6.45;56.59
61384;BME280;63511;49.346;8.798;2023-03-04T12:05:57;100880.31;;;6.84;56.84
61384;BME280;63511;49.346;8.798;2023-03-04T12:11:26;100868.56;;;6.75;56.94
61384;BME280;63511;49.346;8.798;2023-03-04T12:14:08;100877.69;;;7.39;56.88
61384;BME280;63511;49.346;8.798;2023-03-04T12:16:47;100872.38;;;7.36;53.88
61384;BME280;63511;49.346;8.798;2023-03-04T12:19:26;100851.63;;;7.10;55.16
61384;BME280;63511;49.346;8.798;2023-03-04T12:22:18;100850.97;;;6.56;56.43
61384;BME280;63511;49.346;8.798;2023-03-04T12:25:11;100869.06;;;7.75;54.55
61384;BME280;63511;49.346;8.798;2023-03-04T12:27:46;100854.34;;;7.21;56.05
61384;BME280;63511;49.346;8.798;2023-03-04T12:30:32;100847.41;;;7.56;54.63
61384;BME280;63511;49.346;8.798;2023-03-04T12:33:07;100848.97;;;7.75;54.88
61384;BME280;63511;49.346;8.798;2023-03-04T12:35:39;100862.97;;;7.62;57.49
61384;BME280;63511;49.346;8.798;2023-03-04T12:38:19;100830.53;;;7.84;53.96
61384;BME280;63511;49.346;8.798;2023-03-04T12:40:54;100839.63;;;8.41;52.76
61384;BME280;63511;49.346;8.798;2023-03-04T12:43:33;100847.69;;;8.08;53.16
61384;BME280;63511;49.346;8.798;2023-03-04T12:46:15;100850.63;;;7.84;54.43
61384;BME280;63511;49.346;8.798;2023-03-04T12:48:51;100848.47;;;7.79;53.92
61384;BME280;63511;49.346;8.798;2023-03-04T12:51:29;100844.69;;;7.26;55.67
61384;BME280;63511;49.346;8.798;2023-03-04T12:54:08;100850.59;;;6.89;56.88
61384;BME280;63511;49.346;8.798;2023-03-04T12:56:43;100845.81;;;7.19;55.84
61384;BME280;63511;49.346;8.798;2023-03-04T12:59:14;100849.19;;;7.20;57.11
61384;BME280;63511;49.346;8.798;2023-03-04T13:01:47;100838.50;;;7.41;56.27
61384;BME280;63511;49.346;8.798;2023-03-04T13:04:20;100847.31;;;7.46;56.78
61384;BME280;63511;49.346;8.798;2023-03-04T13:07:00;100842.06;;;7.24;56.53
61384;BME280;63511;49.346;8.798;2023-03-04T13:09:34;100821.78;;;7.60;55.96
61384;BME280;63511;49.346;8.798;2023-03-04T13:12:13;100833.34;;;7.68;55.70